sensor_id;sensor_type;location;lat;lon;timestamp;P1;P2;P0
79117;PMS7003;68523;51.336;-0.846;2023-09-12T00:00:00;12;9;
79117;PMS7003;68523;51.336;-0.846;2023-09-12T00:03:00;12;9;
79117;PMS7003;68523;51.336;-0.846;2023-09-12T00:06:00;8;8;
79117;PMS7003;68523;51.336;-0.846;2023-09-12T00:09:00;9;8;
79117;PMS7003;68523;51.336;-0.846;2023-09-12T00:12:00;9;8;
79117;PMS7003;68523;51.336;-0.846;2023-09-12T00:15:00;9;9;
79117;PMS7003;68523;51.336;-0.846;2023-09-12T00:18:00;9;9;
79117;PMS7003;68523;51.336;-0.846;2023-09-12T00:21:00;8;8;
79117;PMS7003;68523;51.336;-0.846;2023-09-12T00:24:00;7;7;
79117;PMS7003;68523;51.336;-0.846;2023-09-12T00:27:00;7;7;
79117;PMS7003;68523;51.336;-0.846;2023-09-12T00:30:00;9;8;
79117;PMS7003;68523;51.336;-0.846;2023-09-12T00:33:00;9;8;
79117;PMS7003;68523;51.336;-0.846;2023-09-12T00:36:00;7;7;
79117;PMS7003;68523;51.336;-0.846;2023-09-12T00:39:00;7;7;
79117;PMS7003;68523;51.336;-0.846;2023-09-12T00:42:00;7;7;
79117;PMS7003;68523;51.336;-0.846;2023-09-12T00:45:00;9;8;
79117;PMS7003;68523;51.336;-0.846;2023-09-12T00:48:00;9;8;
79117;PMS7003;68523;51.336;-0.846;2023-09-12T00:51:00;7;7;
79117;PMS7003;68523;51.336;-0.846;2023-09-12T00:54:00;10;8;
79117;PMS7003;68523;51.336;-0.846;2023-09-12T00:57:00;10;8;
79117;PMS7003;68523;51.336;-0.846;2023-09-12T01:00:00;13;8;
79117;PMS7003;68523;51.336;-0.846;2023-09-12T01:03:00;13;8;
79117;PMS7003;68523;51.336;-0.846;2023-09-12T01:06:00;8;8;
79117;PMS7003;68523;51.336;-0.846;2023-09-12T01:09:00;10;9;
79117;PMS7003;68523;51.336;-0.846;2023-09-12T01:12:00;10;9;
79117;PMS7003;68523;51.336;-0.846;2023-09-12T01:15:00;13;12;
79117;PMS7003;68523;51.336;-0.846;2023-09-12T01:18:00;13;12;
79117;PMS7003;68523;51.336;-0.846;2023-09-12T01:21:05;7;7;
79117;PMS7003;68523;51.336;-0.846;2023-09-12T01:24:02;12;9;
79117;PMS7003;68523;51.336;-0.846;2023-09-12T01:27:08;12;9;
79117;PMS7003;68523;51.336;-0.846;2023-09-12T01:30:01;10;8;
79117;PMS7003;68523;51.336;-0.846;2023-09-12T01:33:00;10;8;
79117;PMS7003;68523;51.336;-0.846;2023-09-12T01:36:00;7;7;
79117;PMS7003;68523;51.336;-0.846;2023-09-12T01:39:00;7;7;
79117;PMS7003;68523;51.336;-0.846;2023-09-12T01:42:00;7;7;
79117;PMS7003;68523;51.336;-0.846;2023-09-12T01:45:00;8;8;
79117;PMS7003;68523;51.336;-0.846;2023-09-12T01:48:00;8;8;
79117;PMS7003;68523;51.336;-0.846;2023-09-12T01:51:00;7;6;
79117;PMS7003;68523;51.336;-0.846;2023-09-12T01:54:00;10;8;
79117;PMS7003;68523;51.336;-0.846;2023-09-12T01:57:00;10;8;
79117;PMS7003;68523;51.336;-0.846;2023-09-12T02:00:00;13;11;
79117;PMS7003;68523;51.336;-0.846;2023-09-12T02:03:01;13;11;
79117;PMS7003;68523;51.336;-0.846;2023-09-12T02:06:00;9;9;
79117;PMS7003;68523;51.336;-0.846;2023-09-12T02:09:00;13;9;
79117;PMS7003;68523;51.336;-0.846;2023-09-12T02:12:00;13;9;
79117;PMS7003;68523;51.336;-0.846;2023-09-12T02:15:00;11;10;
79117;PMS7003;68523;51.336;-0.846;2023-09-12T02:18:00;11;10;
79117;PMS7003;68523;51.336;-0.846;2023-09-12T02:21:00;10;10;
79117;PMS7003;68523;51.336;-0.846;2023-09-12T02:24:00;15;12;
79117;PMS7003;68523;51.336;-0.846;2023-09-12T02:27:00;15;12;
79117;PMS7003;68523;51.336;-0.846;2023-09-12T02:30:00;16;11;
79117;PMS7003;68523;51.336;-0.846;2023-09-12T02:33:00;16;11;
79117;PMS7003;68523;51.336;-0.846;2023-09-12T02:36:00;12;12;
79117;PMS7003;68523;51.336;-0.846;2023-09-12T02:39:00;16;13;
79117;PMS7003;68523;51.336;-0.846;2023-09-12T02:42:00;16;13;
79117;PMS7003;68523;51.336;-0.846;2023-09-12T02:45:00;15;13;
79117;PMS7003;68523;51.336;-0.846;2023-09-12T02:48:00;15;13;
79117;PMS7003;68523;51.336;-0.846;2023-09-12T02:51:00;15;15;
79117;PMS7003;68523;51.336;-0.846;2023-09-12T02:54:00;13;12;
79117;PMS7003;68523;51.336;-0.846;2023-09-12T02:57:00;13;12;
79117;PMS7003;68523;51.336;-0.846;2023-09-12T03:00:00;16;14;
79117;PMS7003;68523;51.336;-0.846;2023-09-12T03:03:00;16;14;
79117;PMS7003;68523;51.336;-0.846;2023-09-12T03:06:00;16;14;
79117;PMS7003;68523;51.336;-0.846;2023-09-12T03:09:00;18;14;
79117;PMS7003;68523;51.336;-0.846;2023-09-12T03:12:00;18;14;
79117;PMS7003;68523;51.336;-0.846;2023-09-12T03:15:00;17;15;
79117;PMS7003;68523;51.336;-0.846;2023-09-12T03:18:00;17;15;
79117;PMS7003;68523;51.336;-0.846;2023-09-12T03:21:00;17;14;
79117;PMS7003;68523;51.336;-0.846;2023-09-12T03:24:00;15;14;
79117;PMS7003;68523;51.336;-0.846;2023-09-12T03:27:00;15;14;
79117;PMS7003;68523;51.336;-0.846;2023-09-12T03:30:00;19;17;
79117;PMS7003;68523;51.336;-0.846;2023-09-12T03:33:00;19;17;
79117;PMS7003;68523;51.336;-0.846;2023-09-12T03:36:00;16;14;
79117;PMS7003;68523;51.336;-0.846;2023-09-12T03:39:00;15;13;
79117;PMS7003;68523;51.336;-0.846;2023-09-12T03:42:00;15;13;
79117;PMS7003;68523;51.336;-0.846;2023-09-12T03:45:00;14;13;
79117;PMS7003;68523;51.336;-0.846;2023-09-12T03:48:00;14;13;
79117;PMS7003;68523;51.336;-0.846;2023-09-12T03:51:00;15;14;
79117;PMS7003;68523;51.336;-0.846;2023-09-12T03:54:00;13;13;
79117;PMS7003;68523;51.336;-0.846;2023-09-12T03:57:00;13;13;
79117;PMS7003;68523;51.336;-0.846;2023-09-12T04:00:00;11;11;
79117;PMS7003;68523;51.336;-0.846;2023-09-12T04:03:00;11;11;
79117;PMS7003;68523;51.336;-0.846;2023-09-12T04:06:00;15;10;
79117;PMS7003;68523;51.336;-0.846;2023-09-12T04:09:00;12;11;
79117;PMS7003;68523;51.336;-0.846;2023-09-12T04:12:00;12;11;
79117;PMS7003;68523;51.336;-0.846;2023-09-12T04:15:00;12;11;
79117;PMS7003;68523;51.336;-0.846;2023-09-12T04:18:00;12;11;
79117;PMS7003;68523;51.336;-0.846;2023-09-12T04:21:00;17;13;
79117;PMS7003;68523;51.336;-0.846;2023-09-12T04:24:00;13;12;
79117;PMS7003;68523;51.336;-0.846;2023-09-12T04:27:00;13;12;
79117;PMS7003;68523;51.336;-0.846;2023-09-12T04:30:00;12;10;
79117;PMS7003;68523;51.336;-0.846;2023-09-12T04:33:00;12;10;
79117;PMS7003;68523;51.336;-0.846;2023-09-12T04:36:00;11;11;
79117;PMS7003;68523;51.336;-0.846;2023-09-12T04:39:00;11;9;
79117;PMS7003;68523;51.336;-0.846;2023-09-12T04:42:00;11;9;
79117;PMS7003;68523;51.336;-0.846;2023-09-12T04:45:00;16;12;
79117;PMS7003;68523;51.336;-0.846;2023-09-12T04:48:00;16;12;
79117;PMS7003;68523;51.336;-0.846;2023-09-12T04:51:00;16;14;
79117;PMS7003;68523;51.336;-0.846;2023-09-12T04:54:00;12;12;
79117;PMS7003;68523;51.336;-0.846;2023-09-12T04:57:00;12;12;
79117;PMS7003;68523;51.336;-0.846;2023-09-12T05:00:00;17;12;
79117;PMS7003;68523;51.336;-0.846;2023-09-12T05:03:00;17;12;
79117;PMS7003;68523;51.336;-0.846;2023-09-12T05:06:00;19;14;
79117;PMS7003;68523;51.336;-0.846;2023-09-12T05:09:00;16;13;
79117;PMS7003;68523;51.336;-0.846;2023-09-12T05:12:00;16;13;
79117;PMS7003;68523;51.336;-0.846;2023-09-12T05:15:00;12;12;
79117;PMS7003;68523;51.336;-0.846;2023-09-12T05:18:00;12;12;
79117;PMS7003;68523;51.336;-0.846;2023-09-12T05:21:00;16;12;
79117;PMS7003;68523;51.336;-0.846;2023-09-12T05:24:00;17;13;
79117;PMS7003;68523;51.336;-0.846;2023-09-12T05:27:00;17;13;
79117;PMS7003;68523;51.336;-0.846;2023-09-12T05:30:00;11;10;
79117;PMS7003;68523;51.336;-0.846;2023-09-12T05:33:00;11;10;
79117;PMS7003;68523;51.336;-0.846;2023-09-12T05:36:00;14;11;
79117;PMS7003;68523;51.336;-0.846;2023-09-12T05:39:00;12;10;
79117;PMS7003;68523;51.336;-0.846;2023-09-12T05:42:00;12;10;
79117;PMS7003;68523;51.336;-0.846;2023-09-12T05:45:00;13;10;
79117;PMS7003;68523;51.336;-0.846;2023-09-12T05:48:00;13;10;
79117;PMS7003;68523;51.336;-0.846;2023-09-12T05:51:00;10;10;
79117;PMS7003;68523;51.336;-0.846;2023-09-12T05:54:00;11;11;
79117;PMS7003;68523;51.336;-0.846;2023-09-12T05:57:00;11;11;
79117;PMS7003;68523;51.336;-0.846;2023-09-12T06:00:00;11;8;
79117;PMS7003;68523;51.336;-0.846;2023-09-12T06:03:00;11;8;
79117;PMS7003;68523;51.336;-0.846;2023-09-12T06:06:00;10;9;
79117;PMS7003;68523;51.336;-0.846;2023-09-12T06:09:00;10;9;
79117;PMS7003;68523;51.336;-0.846;2023-09-12T06:12:00;16;11;
79117;PMS7003;68523;51.336;-0.846;2023-09-12T06:15:00;11;10;
79117;PMS7003;68523;51.336;-0.846;2023-09-12T06:18:00;11;10;
79117;PMS7003;68523;51.336;-0.846;2023-09-12T06:21:00;12;11;
79117;PMS7003;68523;51.336;-0.846;2023-09-12T06:24:08;12;11;
79117;PMS7003;68523;51.336;-0.846;2023-09-12T06:27:00;13;11;
79117;PMS7003;68523;51.336;-0.846;2023-09-12T06:30:00;10;9;
79117;PMS7003;68523;51.336;-0.846;2023-09-12T06:33:00;10;9;
79117;PMS7003;68523;51.336;-0.846;2023-09-12T06:36:00;14;11;
79117;PMS7003;68523;51.336;-0.846;2023-09-12T06:39:00;14;11;
79117;PMS7003;68523;51.336;-0.846;2023-09-12T06:42:00;12;10;
79117;PMS7003;68523;51.336;-0.846;2023-09-12T06:45:00;13;11;
79117;PMS7003;68523;51.336;-0.846;2023-09-12T06:48:00;13;11;
79117;PMS7003;68523;51.336;-0.846;2023-09-12T06:51:00;13;10;
79117;PMS7003;68523;51.336;-0.846;2023-09-12T06:54:00;13;10;
79117;PMS7003;68523;51.336;-0.846;2023-09-12T06:57:00;19;15;
79117;PMS7003;68523;51.336;-0.846;2023-09-12T07:00:00;14;12;
79117;PMS7003;68523;51.336;-0.846;2023-09-12T07:03:00;14;12;
79117;PMS7003;68523;51.336;-0.846;2023-09-12T07:06:00;16;12;
79117;PMS7003;68523;51.336;-0.846;2023-09-12T07:09:00;16;12;
79117;PMS7003;68523;51.336;-0.846;2023-09-12T07:12:00;17;13;
79117;PMS7003;68523;51.336;-0.846;2023-09-12T07:15:00;15;12;
79117;PMS7003;68523;51.336;-0.846;2023-09-12T07:18:00;15;12;
79117;PMS7003;68523;51.336;-0.846;2023-09-12T07:21:00;12;10;
79117;PMS7003;68523;51.336;-0.846;2023-09-12T07:24:00;12;10;
79117;PMS7003;68523;51.336;-0.846;2023-09-12T07:27:00;77;67;
79117;PMS7003;68523;51.336;-0.846;2023-09-12T07:30:00;26;23;
79117;PMS7003;68523;51.336;-0.846;2023-09-12T07:33:00;26;23;
79117;PMS7003;68523;51.336;-0.846;2023-09-12T07:36:00;16;14;
79117;PMS7003;68523;51.336;-0.846;2023-09-12T07:39:00;16;14;
79117;PMS7003;68523;51.336;-0.846;2023-09-12T07:42:00;14;10;
79117;PMS7003;68523;51.336;-0.846;2023-09-12T07:45:00;11;11;
79117;PMS7003;68523;51.336;-0.846;2023-09-12T07:48:00;11;11;
79117;PMS7003;68523;51.336;-0.846;2023-09-12T07:51:00;11;10;
79117;PMS7003;68523;51.336;-0.846;2023-09-12T07:54:00;11;10;
79117;PMS7003;68523;51.336;-0.846;2023-09-12T07:57:00;12;7;
79117;PMS7003;68523;51.336;-0.846;2023-09-12T08:00:00;8;7;
79117;PMS7003;68523;51.336;-0.846;2023-09-12T08:03:00;8;7;
79117;PMS7003;68523;51.336;-0.846;2023-09-12T08:06:00;10;8;
79117;PMS7003;68523;51.336;-0.846;2023-09-12T08:09:00;10;8;
79117;PMS7003;68523;51.336;-0.846;2023-09-12T08:12:00;9;9;
79117;PMS7003;68523;51.336;-0.846;2023-09-12T08:15:00;11;10;
79117;PMS7003;68523;51.336;-0.846;2023-09-12T08:18:00;11;10;
79117;PMS7003;68523;51.336;-0.846;2023-09-12T08:21:00;9;7;
79117;PMS7003;68523;51.336;-0.846;2023-09-12T08:24:00;9;7;
79117;PMS7003;68523;51.336;-0.846;2023-09-12T08:27:00;11;8;
79117;PMS7003;68523;51.336;-0.846;2023-09-12T08:30:00;7;6;
79117;PMS7003;68523;51.336;-0.846;2023-09-12T08:33:00;7;6;
79117;PMS7003;68523;51.336;-0.846;2023-09-12T08:36:00;10;7;
79117;PMS7003;68523;51.336;-0.846;2023-09-12T08:39:00;10;7;
79117;PMS7003;68523;51.336;-0.846;2023-09-12T08:42:00;5;5;
79117;PMS7003;68523;51.336;-0.846;2023-09-12T08:45:00;8;7;
79117;PMS7003;68523;51.336;-0.846;2023-09-12T08:48:00;8;7;
79117;PMS7003;68523;51.336;-0.846;2023-09-12T08:51:00;15;14;
79117;PMS7003;68523;51.336;-0.846;2023-09-12T08:54:00;15;14;
79117;PMS7003;68523;51.336;-0.846;2023-09-12T08:57:00;11;10;
79117;PMS7003;68523;51.336;-0.846;2023-09-12T09:00:00;5;5;
79117;PMS7003;68523;51.336;-0.846;2023-09-12T09:03:00;5;5;
79117;PMS7003;68523;51.336;-0.846;2023-09-12T09:06:00;8;5;
79117;PMS7003;68523;51.336;-0.846;2023-09-12T09:09:00;8;5;
79117;PMS7003;68523;51.336;-0.846;2023-09-12T09:12:00;7;6;
79117;PMS7003;68523;51.336;-0.846;2023-09-12T09:18:01;16;11;
79117;PMS7003;68523;51.336;-0.846;2023-09-12T09:21:00;15;12;
79117;PMS7003;68523;51.336;-0.846;2023-09-12T09:24:00;15;12;
79117;PMS7003;68523;51.336;-0.846;2023-09-12T09:27:00;14;12;
79117;PMS7003;68523;51.336;-0.846;2023-09-12T09:30:00;10;10;
79117;PMS7003;68523;51.336;-0.846;2023-09-12T09:33:02;10;10;
79117;PMS7003;68523;51.336;-0.846;2023-09-12T09:36:02;6;6;
79117;PMS7003;68523;51.336;-0.846;2023-09-12T09:39:00;6;6;
79117;PMS7003;68523;51.336;-0.846;2023-09-12T09:42:00;8;8;
79117;PMS7003;68523;51.336;-0.846;2023-09-12T09:45:00;11;9;
79117;PMS7003;68523;51.336;-0.846;2023-09-12T09:48:04;11;9;
79117;PMS7003;68523;51.336;-0.846;2023-09-12T09:51:00;8;5;
79117;PMS7003;68523;51.336;-0.846;2023-09-12T09:54:00;8;5;
79117;PMS7003;68523;51.336;-0.846;2023-09-12T09:57:00;5;5;
79117;PMS7003;68523;51.336;-0.846;2023-09-12T10:00:00;7;6;
79117;PMS7003;68523;51.336;-0.846;2023-09-12T10:03:00;7;6;
79117;PMS7003;68523;51.336;-0.846;2023-09-12T10:06:00;6;6;
79117;PMS7003;68523;51.336;-0.846;2023-09-12T10:09:00;6;6;
79117;PMS7003;68523;51.336;-0.846;2023-09-12T10:12:00;7;5;
79117;PMS7003;68523;51.336;-0.846;2023-09-12T10:15:00;5;4;
79117;PMS7003;68523;51.336;-0.846;2023-09-12T10:18:02;5;4;
79117;PMS7003;68523;51.336;-0.846;2023-09-12T10:21:02;4;3;
79117;PMS7003;68523;51.336;-0.846;2023-09-12T10:24:00;4;3;
79117;PMS7003;68523;51.336;-0.846;2023-09-12T10:27:00;5;3;
79117;PMS7003;68523;51.336;-0.846;2023-09-12T10:30:00;4;3;
79117;PMS7003;68523;51.336;-0.846;2023-09-12T10:33:00;4;3;
79117;PMS7003;68523;51.336;-0.846;2023-09-12T10:36:00;3;3;
79117;PMS7003;68523;51.336;-0.846;2023-09-12T10:39:00;3;3;
79117;PMS7003;68523;51.336;-0.846;2023-09-12T10:42:00;4;3;
79117;PMS7003;68523;51.336;-0.846;2023-09-12T10:45:00;3;3;
79117;PMS7003;68523;51.336;-0.846;2023-09-12T10:48:00;3;3;
79117;PMS7003;68523;51.336;-0.846;2023-09-12T10:51:00;3;2;
79117;PMS7003;68523;51.336;-0.846;2023-09-12T10:54:00;3;2;
79117;PMS7003;68523;51.336;-0.846;2023-09-12T10:57:03;2;2;
79117;PMS7003;68523;51.336;-0.846;2023-09-12T11:00:09;3;3;
79117;PMS7003;68523;51.336;-0.846;2023-09-12T11:03:01;3;3;
79117;PMS7003;68523;51.336;-0.846;2023-09-12T11:06:00;3;3;
79117;PMS7003;68523;51.336;-0.846;2023-09-12T11:12:01;3;3;
79117;PMS7003;68523;51.336;-0.846;2023-09-12T11:15:03;3;3;
79117;PMS7003;68523;51.336;-0.846;2023-09-12T11:18:01;3;3;
79117;PMS7003;68523;51.336;-0.846;2023-09-12T11:21:00;4;3;
79117;PMS7003;68523;51.336;-0.846;2023-09-12T11:24:00;4;3;
79117;PMS7003;68523;51.336;-0.846;2023-09-12T11:27:00;4;3;
79117;PMS7003;68523;51.336;-0.846;2023-09-12T11:30:03;4;4;
79117;PMS7003;68523;51.336;-0.846;2023-09-12T11:33:02;4;4;
79117;PMS7003;68523;51.336;-0.846;2023-09-12T11:36:00;5;3;
79117;PMS7003;68523;51.336;-0.846;2023-09-12T11:39:01;5;3;
79117;PMS7003;68523;51.336;-0.846;2023-09-12T11:42:00;6;4;
79117;PMS7003;68523;51.336;-0.846;2023-09-12T11:45:00;2;2;
79117;PMS7003;68523;51.336;-0.846;2023-09-12T11:48:00;2;2;
79117;PMS7003;68523;51.336;-0.846;2023-09-12T11:51:00;4;3;
79117;PMS7003;68523;51.336;-0.846;2023-09-12T11:54:00;4;3;
79117;PMS7003;68523;51.336;-0.846;2023-09-12T11:57:01;4;3;
79117;PMS7003;68523;51.336;-0.846;2023-09-12T12:00:02;4;2;
79117;PMS7003;68523;51.336;-0.846;2023-09-12T12:03:00;4;2;
79117;PMS7003;68523;51.336;-0.846;2023-09-12T12:06:00;6;4;
79117;PMS7003;68523;51.336;-0.846;2023-09-12T12:09:00;6;4;
79117;PMS7003;68523;51.336;-0.846;2023-09-12T12:12:03;5;4;
79117;PMS7003;68523;51.336;-0.846;2023-09-12T12:15:00;9;5;
79117;PMS7003;68523;51.336;-0.846;2023-09-12T12:18:00;9;5;
79117;PMS7003;68523;51.336;-0.846;2023-09-12T12:21:00;4;4;
79117;PMS7003;68523;51.336;-0.846;2023-09-12T12:24:00;4;4;
79117;PMS7003;68523;51.336;-0.846;2023-09-12T12:27:00;4;2;
79117;PMS7003;68523;51.336;-0.846;2023-09-12T12:30:00;5;5;
79117;PMS7003;68523;51.336;-0.846;2023-09-12T12:33:00;5;5;
79117;PMS7003;68523;51.336;-0.846;2023-09-12T12:36:00;5;4;
79117;PMS7003;68523;51.336;-0.846;2023-09-12T12:39:00;5;4;
79117;PMS7003;68523;51.336;-0.846;2023-09-12T12:42:00;4;4;
79117;PMS7003;68523;51.336;-0.846;2023-09-12T12:45:00;4;3;
79117;PMS7003;68523;51.336;-0.846;2023-09-12T12:48:00;4;3;
79117;PMS7003;68523;51.336;-0.846;2023-09-12T12:54:03;5;5;
79117;PMS7003;68523;51.336;-0.846;2023-09-12T12:57:00;4;4;
79117;PMS7003;68523;51.336;-0.846;2023-09-12T13:00:00;5;4;
79117;PMS7003;68523;51.336;-0.846;2023-09-12T13:03:00;5;4;
79117;PMS7003;68523;51.336;-0.846;2023-09-12T13:06:00;5;4;
79117;PMS7003;68523;51.336;-0.846;2023-09-12T13:09:00;5;4;
79117;PMS7003;68523;51.336;-0.846;2023-09-12T13:12:00;2;2;
79117;PMS7003;68523;51.336;-0.846;2023-09-12T13:15:00;3;3;
79117;PMS7003;68523;51.336;-0.846;2023-09-12T13:18:00;3;3;
79117;PMS7003;68523;51.336;-0.846;2023-09-12T13:21:00;3;3;
79117;PMS7003;68523;51.336;-0.846;2023-09-12T13:24:00;3;3;
79117;PMS7003;68523;51.336;-0.846;2023-09-12T13:27:00;4;4;
79117;PMS7003;68523;51.336;-0.846;2023-09-12T13:30:00;5;3;
79117;PMS7003;68523;51.336;-0.846;2023-09-12T13:33:00;5;3;
79117;PMS7003;68523;51.336;-0.846;2023-09-12T13:36:00;5;4;
79117;PMS7003;68523;51.336;-0.846;2023-09-12T13:39:00;5;4;
79117;PMS7003;68523;51.336;-0.846;2023-09-12T13:42:00;5;5;
79117;PMS7003;68523;51.336;-0.846;2023-09-12T13:45:00;5;5;
79117;PMS7003;68523;51.336;-0.846;2023-09-12T13:48:00;5;5;
79117;PMS7003;68523;51.336;-0.846;2023-09-12T13:51:00;4;4;
79117;PMS7003;68523;51.336;-0.846;2023-09-12T13:54:00;4;4;
79117;PMS7003;68523;51.336;-0.846;2023-09-12T13:57:00;5;5;
79117;PMS7003;68523;51.336;-0.846;2023-09-12T14:00:00;5;5;
79117;PMS7003;68523;51.336;-0.846;2023-09-12T14:03:00;4;4;
79117;PMS7003;68523;51.336;-0.846;2023-09-12T14:06:00;7;6;
79117;PMS7003;68523;51.336;-0.846;2023-09-12T14:09:00;7;6;
79117;PMS7003;68523;51.336;-0.846;2023-09-12T14:12:00;3;3;
79117;PMS7003;68523;51.336;-0.846;2023-09-12T14:15:00;3;3;
79117;PMS7003;68523;51.336;-0.846;2023-09-12T14:18:00;9;4;
79117;PMS7003;68523;51.336;-0.846;2023-09-12T14:21:00;4;4;
79117;PMS7003;68523;51.336;-0.846;2023-09-12T14:24:00;4;4;
79117;PMS7003;68523;51.336;-0.846;2023-09-12T14:27:00;17;17;
79117;PMS7003;68523;51.336;-0.846;2023-09-12T14:30:00;17;17;
79117;PMS7003;68523;51.336;-0.846;2023-09-12T14:33:00;8;8;
79117;PMS7003;68523;51.336;-0.846;2023-09-12T14:36:00;11;11;
79117;PMS7003;68523;51.336;-0.846;2023-09-12T14:39:00;11;11;
79117;PMS7003;68523;51.336;-0.846;2023-09-12T14:42:00;5;4;
79117;PMS7003;68523;51.336;-0.846;2023-09-12T14:45:00;5;4;
79117;PMS7003;68523;51.336;-0.846;2023-09-12T14:48:00;5;4;
79117;PMS7003;68523;51.336;-0.846;2023-09-12T14:51:00;5;5;
79117;PMS7003;68523;51.336;-0.846;2023-09-12T14:54:00;5;5;
79117;PMS7003;68523;51.336;-0.846;2023-09-12T14:57:00;5;5;
79117;PMS7003;68523;51.336;-0.846;2023-09-12T15:00:00;5;5;
79117;PMS7003;68523;51.336;-0.846;2023-09-12T15:03:00;8;5;
79117;PMS7003;68523;51.336;-0.846;2023-09-12T15:06:00;7;3;
79117;PMS7003;68523;51.336;-0.846;2023-09-12T15:09:00;7;3;
79117;PMS7003;68523;51.336;-0.846;2023-09-12T15:12:00;9;8;
79117;PMS7003;68523;51.336;-0.846;2023-09-12T15:15:00;9;8;
79117;PMS7003;68523;51.336;-0.846;2023-09-12T15:18:00;8;7;
79117;PMS7003;68523;51.336;-0.846;2023-09-12T15:21:00;8;5;
79117;PMS7003;68523;51.336;-0.846;2023-09-12T15:24:00;8;5;
79117;PMS7003;68523;51.336;-0.846;2023-09-12T15:27:00;8;8;
79117;PMS7003;68523;51.336;-0.846;2023-09-12T15:30:00;8;8;
79117;PMS7003;68523;51.336;-0.846;2023-09-12T15:33:00;7;7;
79117;PMS7003;68523;51.336;-0.846;2023-09-12T15:36:00;6;6;
79117;PMS7003;68523;51.336;-0.846;2023-09-12T15:39:00;6;6;
79117;PMS7003;68523;51.336;-0.846;2023-09-12T15:42:00;7;6;
79117;PMS7003;68523;51.336;-0.846;2023-09-12T15:45:00;7;6;
79117;PMS7003;68523;51.336;-0.846;2023-09-12T15:48:00;9;7;
79117;PMS7003;68523;51.336;-0.846;2023-09-12T15:51:00;5;4;
79117;PMS7003;68523;51.336;-0.846;2023-09-12T15:54:00;5;4;
79117;PMS7003;68523;51.336;-0.846;2023-09-12T15:57:00;8;7;
79117;PMS7003;68523;51.336;-0.846;2023-09-12T16:00:00;8;7;
79117;PMS7003;68523;51.336;-0.846;2023-09-12T16:03:00;6;5;
79117;PMS7003;68523;51.336;-0.846;2023-09-12T16:06:00;1;1;
79117;PMS7003;68523;51.336;-0.846;2023-09-12T16:09:00;1;1;
79117;PMS7003;68523;51.336;-0.846;2023-09-12T16:12:00;5;3;
79117;PMS7003;68523;51.336;-0.846;2023-09-12T16:15:00;5;3;
79117;PMS7003;68523;51.336;-0.846;2023-09-12T16:18:00;4;4;
79117;PMS7003;68523;51.336;-0.846;2023-09-12T16:21:00;3;3;
79117;PMS7003;68523;51.336;-0.846;2023-09-12T16:24:00;3;3;
79117;PMS7003;68523;51.336;-0.846;2023-09-12T16:27:00;2;2;
79117;PMS7003;68523;51.336;-0.846;2023-09-12T16:30:00;2;2;
79117;PMS7003;68523;51.336;-0.846;2023-09-12T16:33:00;3;2;
79117;PMS7003;68523;51.336;-0.846;2023-09-12T16:36:00;3;3;
79117;PMS7003;68523;51.336;-0.846;2023-09-12T16:39:00;3;3;
79117;PMS7003;68523;51.336;-0.846;2023-09-12T16:42:00;3;3;
79117;PMS7003;68523;51.336;-0.846;2023-09-12T16:45:00;3;3;
79117;PMS7003;68523;51.336;-0.846;2023-09-12T16:48:00;4;3;
79117;PMS7003;68523;51.336;-0.846;2023-09-12T16:51:00;3;3;
79117;PMS7003;68523;51.336;-0.846;2023-09-12T16:54:00;3;3;
79117;PMS7003;68523;51.336;-0.846;2023-09-12T16:57:00;1;1;
79117;PMS7003;68523;51.336;-0.846;2023-09-12T17:00:00;1;1;
79117;PMS7003;68523;51.336;-0.846;2023-09-12T17:03:00;2;2;
79117;PMS7003;68523;51.336;-0.846;2023-09-12T17:06:00;2;2;
79117;PMS7003;68523;51.336;-0.846;2023-09-12T17:09:00;2;2;
79117;PMS7003;68523;51.336;-0.846;2023-09-12T17:12:00;1;1;
79117;PMS7003;68523;51.336;-0.846;2023-09-12T17:15:00;1;1;
79117;PMS7003;68523;51.336;-0.846;2023-09-12T17:18:00;2;2;
79117;PMS7003;68523;51.336;-0.846;2023-09-12T17:21:00;1;1;
79117;PMS7003;68523;51.336;-0.846;2023-09-12T17:24:00;1;1;
79117;PMS7003;68523;51.336;-0.846;2023-09-12T17:27:00;2;0;
79117;PMS7003;68523;51.336;-0.846;2023-09-12T17:30:00;2;0;
79117;PMS7003;68523;51.336;-0.846;2023-09-12T17:33:00;1;1;
79117;PMS7003;68523;51.336;-0.846;2023-09-12T17:36:00;3;2;
79117;PMS7003;68523;51.336;-0.846;2023-09-12T17:39:00;3;2;
79117;PMS7003;68523;51.336;-0.846;2023-09-12T17:42:00;4;3;
79117;PMS7003;68523;51.336;-0.846;2023-09-12T17:45:00;4;3;
79117;PMS7003;68523;51.336;-0.846;2023-09-12T17:48:00;1;1;
79117;PMS7003;68523;51.336;-0.846;2023-09-12T17:51:00;2;2;
79117;PMS7003;68523;51.336;-0.846;2023-09-12T17:54:00;2;2;
79117;PMS7003;68523;51.336;-0.846;2023-09-12T17:57:00;1;1;
79117;PMS7003;68523;51.336;-0.846;2023-09-12T18:00:00;1;1;
79117;PMS7003;68523;51.336;-0.846;2023-09-12T18:03:00;0;0;
79117;PMS7003;68523;51.336;-0.846;2023-09-12T18:06:00;0;0;
79117;PMS7003;68523;51.336;-0.846;2023-09-12T18:09:00;0;0;
79117;PMS7003;68523;51.336;-0.846;2023-09-12T18:12:00;0;0;
79117;PMS7003;68523;51.336;-0.846;2023-09-12T18:15:00;0;0;
79117;PMS7003;68523;51.336;-0.846;2023-09-12T18:18:00;0;0;
79117;PMS7003;68523;51.336;-0.846;2023-09-12T18:21:00;0;0;
79117;PMS7003;68523;51.336;-0.846;2023-09-12T18:24:00;0;0;
79117;PMS7003;68523;51.336;-0.846;2023-09-12T18:27:00;0;0;
79117;PMS7003;68523;51.336;-0.846;2023-09-12T18:30:00;0;0;
79117;PMS7003;68523;51.336;-0.846;2023-09-12T18:33:00;1;1;
79117;PMS7003;68523;51.336;-0.846;2023-09-12T18:36:00;0;0;
79117;PMS7003;68523;51.336;-0.846;2023-09-12T18:39:00;0;0;
79117;PMS7003;68523;51.336;-0.846;2023-09-12T18:42:00;2;0;
79117;PMS7003;68523;51.336;-0.846;2023-09-12T18:45:00;2;0;
79117;PMS7003;68523;51.336;-0.846;2023-09-12T18:48:00;0;0;
79117;PMS7003;68523;51.336;-0.846;2023-09-12T18:51:00;0;0;
79117;PMS7003;68523;51.336;-0.846;2023-09-12T18:54:00;0;0;
79117;PMS7003;68523;51.336;-0.846;2023-09-12T18:57:00;0;0;
79117;PMS7003;68523;51.336;-0.846;2023-09-12T19:00:00;0;0;
79117;PMS7003;68523;51.336;-0.846;2023-09-12T19:03:00;0;0;
79117;PMS7003;68523;51.336;-0.846;2023-09-12T19:06:00;0;0;
79117;PMS7003;68523;51.336;-0.846;2023-09-12T19:09:00;0;0;
79117;PMS7003;68523;51.336;-0.846;2023-09-12T19:12:00;0;0;
79117;PMS7003;68523;51.336;-0.846;2023-09-12T19:15:00;0;0;
79117;PMS7003;68523;51.336;-0.846;2023-09-12T19:18:00;1;0;
79117;PMS7003;68523;51.336;-0.846;2023-09-12T19:21:00;1;1;
79117;PMS7003;68523;51.336;-0.846;2023-09-12T19:24:00;1;1;
79117;PMS7003;68523;51.336;-0.846;2023-09-12T19:27:00;0;0;
79117;PMS7003;68523;51.336;-0.846;2023-09-12T19:30:00;0;0;
79117;PMS7003;68523;51.336;-0.846;2023-09-12T19:33:00;1;1;
79117;PMS7003;68523;51.336;-0.846;2023-09-12T19:36:00;3;3;
79117;PMS7003;68523;51.336;-0.846;2023-09-12T19:39:00;3;3;
79117;PMS7003;68523;51.336;-0.846;2023-09-12T19:42:00;1;1;
79117;PMS7003;68523;51.336;-0.846;2023-09-12T19:45:00;1;1;
79117;PMS7003;68523;51.336;-0.846;2023-09-12T19:48:00;1;1;
79117;PMS7003;68523;51.336;-0.846;2023-09-12T19:51:00;1;1;
79117;PMS7003;68523;51.336;-0.846;2023-09-12T19:54:00;1;1;
79117;PMS7003;68523;51.336;-0.846;2023-09-12T19:57:00;3;3;
79117;PMS7003;68523;51.336;-0.846;2023-09-12T20:00:00;3;3;
79117;PMS7003;68523;51.336;-0.846;2023-09-12T20:03:00;4;4;
79117;PMS7003;68523;51.336;-0.846;2023-09-12T20:06:00;6;6;
79117;PMS7003;68523;51.336;-0.846;2023-09-12T20:09:00;6;6;